Time;durP1;ratioP1;P1;durP2;ratioP2;P2;SDS_P1;SDS_P2;PMS_P1;PMS_P2;Temp;Humidity;BMP_temperature;BMP_pressure;BME280_temperature;BME280_humidity;BME280_pressure;Samples;Min_cycle;Max_cycle;Signal;HPM_P1;HPM_P2
2021/11/05 00:00:19;;;;;;;35.97;19.20;;;5.30;99.90;;;;;;4981387;28;20433;-84
2021/11/05 00:02:45;;;;;;;32.38;17.88;;;5.30;99.90;;;;;;4990441;28;20036;-85
2021/11/05 00:05:11;;;;;;;39.03;19.33;;;5.30;99.90;;;;;;4991417;28;20034;-85
2021/11/05 00:07:37;;;;;;;36.53;18.30;;;5.30;99.90;;;;;;4970734;28;20062;-86
2021/11/05 00:10:04;;;;;;;36.65;18.33;;;5.30;99.90;;;;;;5015123;28;20144;-85
2021/11/05 00:12:32;;;;;;;29.65;16.23;;;5.30;99.90;;;;;;5004030;28;20409;-85
2021/11/05 00:14:57;;;;;;;40.03;18.02;;;5.30;99.90;;;;;;4987000;28;20037;-85
2021/11/05 00:17:23;;;;;;;31.42;16.90;;;5.30;99.90;;;;;;4953370;28;20060;-83
2021/11/05 00:19:49;;;;;;;32.75;17.15;;;5.30;99.90;;;;;;4964890;28;20116;-85
2021/11/05 00:22:15;;;;;;;34.22;17.00;;;5.30;99.90;;;;;;4971366;28;20042;-86
2021/11/05 00:24:41;;;;;;;32.88;16.73;;;5.20;99.90;;;;;;4967773;28;20142;-85
2021/11/05 00:27:07;;;;;;;35.30;17.55;;;5.20;99.90;;;;;;5005466;28;20033;-85
2021/11/05 00:29:36;;;;;;;39.05;16.83;;;5.20;99.90;;;;;;4963991;28;20598;-85
2021/11/05 00:32:02;;;;;;;36.80;17.10;;;5.20;99.90;;;;;;4986627;28;20045;-85
2021/11/05 00:34:28;;;;;;;33.35;16.75;;;5.20;99.90;;;;;;4959029;28;20041;-85
2021/11/05 00:36:54;;;;;;;30.00;15.77;;;5.20;99.90;;;;;;4973499;28;20042;-86
2021/11/05 00:39:19;;;;;;;32.42;16.75;;;5.20;99.90;;;;;;4987618;28;20523;-85
2021/11/05 00:41:45;;;;;;;37.60;16.92;;;5.20;99.90;;;;;;4998195;28;20042;-85
2021/11/05 00:44:11;;;;;;;36.53;17.02;;;5.10;99.90;;;;;;4987413;28;20183;-85
2021/11/05 00:46:37;;;;;;;36.70;17.65;;;5.10;99.90;;;;;;4983794;28;20033;-85
2021/11/05 00:49:03;;;;;;;36.13;16.85;;;5.10;99.90;;;;;;4970786;28;20037;-85
2021/11/05 00:51:29;;;;;;;38.08;17.45;;;5.10;99.90;;;;;;4985747;28;20046;-84
2021/11/05 00:53:55;;;;;;;32.58;16.90;;;5.20;99.90;;;;;;5001930;28;20040;-85
2021/11/05 00:56:20;;;;;;;31.52;15.82;;;5.20;99.90;;;;;;4985994;28;20037;-85
2021/11/05 00:58:46;;;;;;;28.55;14.75;;;5.20;99.90;;;;;;4964681;28;20085;-85
2021/11/05 01:01:12;;;;;;;29.92;15.63;;;5.20;99.90;;;;;;4968335;28;20045;-85
2021/11/05 01:03:38;;;;;;;24.88;14.57;;;5.30;99.90;;;;;;4997369;28;20038;-85
2021/11/05 01:06:04;;;;;;;28.02;14.85;;;5.20;99.90;;;;;;4957158;28;20057;-85
2021/11/05 01:08:29;;;;;;;26.85;14.27;;;5.20;99.90;;;;;;4969162;28;20045;-85
2021/11/05 01:10:55;;;;;;;29.17;14.60;;;5.30;99.90;;;;;;4981488;28;20038;-85
2021/11/05 01:13:21;;;;;;;24.15;14.10;;;5.30;99.90;;;;;;4966870;28;20465;-85
2021/11/05 01:15:51;;;;;;;27.35;13.82;;;5.30;99.90;;;;;;4988614;28;20046;-85
2021/11/05 01:18:18;;;;;;;24.13;13.23;;;5.30;99.90;;;;;;4972322;28;20029;-85
2021/11/05 01:20:44;;;;;;;29.00;13.68;;;5.30;99.90;;;;;;4978520;28;20042;-85
2021/11/05 01:23:09;;;;;;;32.67;13.77;;;5.30;99.90;;;;;;4999363;28;20767;-85
2021/11/05 01:25:35;;;;;;;29.60;14.15;;;5.30;99.90;;;;;;5023473;28;20531;-84
2021/11/05 01:28:01;;;;;;;25.67;12.98;;;5.30;99.90;;;;;;5008007;28;20377;-85
2021/11/05 01:30:27;;;;;;;29.65;13.38;;;5.40;99.90;;;;;;4986290;28;20561;-85
2021/11/05 01:32:53;;;;;;;30.65;13.93;;;5.40;99.90;;;;;;4991341;28;20515;-85
2021/11/05 01:35:18;;;;;;;28.58;13.20;;;5.40;99.90;;;;;;4956170;28;20038;-85
2021/11/05 01:37:45;;;;;;;24.90;12.68;;;5.40;99.90;;;;;;4984823;28;20056;-84
2021/11/05 01:40:12;;;;;;;23.73;12.43;;;5.40;99.90;;;;;;4983449;28;20030;-85
2021/11/05 01:42:38;;;;;;;26.77;13.15;;;5.50;99.90;;;;;;4986684;28;20503;-85
2021/11/05 01:45:06;;;;;;;26.38;12.13;;;5.50;99.90;;;;;;4999865;28;20034;-85
2021/11/05 01:47:32;;;;;;;25.52;13.07;;;5.50;99.90;;;;;;4987358;28;20042;-85
2021/11/05 01:49:58;;;;;;;25.02;11.52;;;5.60;99.90;;;;;;4980535;28;20038;-85
2021/11/05 01:52:25;;;;;;;23.45;11.52;;;5.60;99.90;;;;;;4998333;28;20751;-85
2021/11/05 01:54:52;;;;;;;19.70;9.95;;;5.60;99.90;;;;;;5004099;28;20064;-84
2021/11/05 01:57:18;;;;;;;21.42;10.38;;;5.60;99.90;;;;;;4986485;28;20034;-85
2021/11/05 01:59:50;;;;;;;24.27;10.32;;;5.60;99.90;;;;;;4984774;28;20037;-84
2021/11/05 02:02:16;;;;;;;19.83;9.88;;;5.60;99.90;;;;;;4975349;28;20037;-85
2021/11/05 02:04:42;;;;;;;23.25;10.27;;;5.60;99.90;;;;;;4971982;28;20095;-85
2021/11/05 02:07:11;;;;;;;23.30;9.43;;;5.60;99.90;;;;;;4996983;28;20041;-85
2021/11/05 02:09:38;;;;;;;24.40;10.38;;;5.60;99.90;;;;;;4966951;28;20100;-85
2021/11/05 02:12:06;;;;;;;24.27;10.88;;;5.60;99.90;;;;;;4990131;28;20044;-84
2021/11/05 02:14:32;;;;;;;27.00;9.90;;;5.60;99.90;;;;;;4987709;28;20408;-85
2021/11/05 02:17:01;;;;;;;18.05;8.52;;;5.60;99.90;;;;;;4988894;28;20041;-85
2021/11/05 02:19:30;;;;;;;20.23;8.93;;;5.50;99.90;;;;;;4997236;28;20042;-84
2021/11/05 02:21:58;;;;;;;19.13;8.90;;;5.50;99.90;;;;;;4987201;28;20049;-85
2021/11/05 02:24:26;;;;;;;16.15;8.13;;;5.50;99.90;;;;;;5000240;28;20116;-85
2021/11/05 02:26:53;;;;;;;15.85;7.28;;;5.50;99.90;;;;;;4985894;28;20073;-84
2021/11/05 02:29:20;;;;;;;18.23;7.82;;;5.50;99.90;;;;;;4965864;28;20050;-84
2021/11/05 02:31:46;;;;;;;14.57;7.45;;;5.50;99.90;;;;;;4986737;28;20061;-84
2021/11/05 02:34:13;;;;;;;18.17;7.07;;;5.50;99.90;;;;;;4983282;28;20036;-85
2021/11/05 02:36:39;;;;;;;12.15;7.07;;;5.50;99.90;;;;;;4980874;28;20041;-84
2021/11/05 02:39:07;;;;;;;15.63;7.10;;;5.40;99.90;;;;;;4985320;28;20589;-85
2021/11/05 02:41:41;;;;;;;17.83;6.07;;;5.50;99.90;;;;;;4986894;28;20077;-84
2021/11/05 02:44:09;;;;;;;11.38;5.68;;;5.40;99.90;;;;;;4986064;28;20128;-84
2021/11/05 02:46:36;;;;;;;13.32;6.03;;;5.40;99.90;;;;;;4998448;28;20096;-84
2021/11/05 02:49:06;;;;;;;13.05;5.43;;;5.40;99.90;;;;;;4958259;28;20045;-84
2021/11/05 02:51:33;;;;;;;9.10;4.88;;;5.40;99.90;;;;;;4983770;28;20164;-84
2021/11/05 02:54:00;;;;;;;11.50;4.47;;;5.40;99.90;;;;;;4973102;28;20033;-84
2021/11/05 02:56:27;;;;;;;10.27;4.35;;;5.40;99.90;;;;;;4986074;28;20407;-84
2021/11/05 02:58:53;;;;;;;10.88;4.82;;;5.40;99.90;;;;;;4970765;28;20120;-84
2021/11/05 03:01:19;;;;;;;13.95;4.68;;;5.40;99.90;;;;;;4983373;28;20125;-84
2021/11/05 03:03:46;;;;;;;12.07;4.90;;;5.40;99.90;;;;;;4983522;28;20042;-84
2021/11/05 03:06:13;;;;;;;9.45;4.40;;;5.40;99.90;;;;;;4962691;28;20048;-84
2021/11/05 03:08:39;;;;;;;10.80;4.25;;;5.30;99.90;;;;;;4966142;28;20038;-84
2021/11/05 03:11:08;;;;;;;10.75;4.57;;;5.30;99.90;;;;;;4952694;28;20045;-84
2021/11/05 03:13:34;;;;;;;13.98;3.92;;;5.30;99.90;;;;;;5000128;28;20033;-84
2021/11/05 03:16:00;;;;;;;10.43;3.95;;;5.30;99.90;;;;;;4984345;28;20033;-84
2021/11/05 03:18:30;;;;;;;15.07;3.83;;;5.30;99.90;;;;;;4977978;28;20121;-84
2021/11/05 03:20:56;;;;;;;14.13;4.10;;;5.30;99.90;;;;;;4984401;28;20030;-84
2021/11/05 03:23:22;;;;;;;10.27;4.18;;;5.30;99.90;;;;;;4988838;28;20048;-84
2021/11/05 03:25:48;;;;;;;18.50;4.22;;;5.30;99.90;;;;;;4972216;28;20050;-84
2021/11/05 03:28:22;;;;;;;13.65;3.90;;;5.30;99.90;;;;;;4984570;28;20034;-84
2021/11/05 03:31:15;;;;;;;10.07;4.32;;;5.30;99.90;;;;;;4989309;28;20113;-84
2021/11/05 03:33:41;;;;;;;15.77;4.45;;;5.30;99.90;;;;;;4987237;28;20046;-84
2021/11/05 03:36:22;;;;;;;10.27;3.72;;;5.30;99.90;;;;;;4987784;28;20125;-84
2021/11/05 03:38:49;;;;;;;13.50;4.05;;;5.30;99.90;;;;;;4989098;28;20532;-84
2021/11/05 03:41:15;;;;;;;15.77;4.53;;;5.30;99.90;;;;;;4971448;28;20061;-83
2021/11/05 03:43:41;;;;;;;11.55;4.13;;;5.40;99.90;;;;;;4971642;28;20396;-84
2021/11/05 03:46:07;;;;;;;13.70;3.92;;;5.40;99.90;;;;;;4982146;28;20053;-84
2021/11/05 03:48:35;;;;;;;12.57;3.92;;;5.40;99.90;;;;;;5018075;28;20049;-83
2021/11/05 03:51:03;;;;;;;20.27;4.13;;;5.50;99.90;;;;;;4955750;28;20497;-84
2021/11/05 03:53:29;;;;;;;10.23;3.65;;;5.50;99.90;;;;;;4983237;28;20149;-84
2021/11/05 03:55:55;;;;;;;14.50;4.35;;;5.50;99.90;;;;;;4970086;28;20539;-84
2021/11/05 03:58:21;;;;;;;11.68;3.83;;;5.60;99.90;;;;;;4966905;28;20034;-84
2021/11/05 04:00:46;;;;;;;14.23;4.40;;;5.60;99.90;;;;;;4975326;28;20049;-84
2021/11/05 04:03:12;;;;;;;17.00;4.57;;;5.70;99.90;;;;;;4973343;28;20067;-84
2021/11/05 04:05:39;;;;;;;20.15;4.28;;;5.70;99.90;;;;;;4986465;28;20131;-83
2021/11/05 04:08:04;;;;;;;14.98;4.10;;;5.70;99.90;;;;;;4965259;28;22944;-84
2021/11/05 04:10:30;;;;;;;16.85;4.57;;;5.90;99.90;;;;;;5000877;28;20038;-83
2021/11/05 04:13:01;;;;;;;12.23;4.28;;;5.90;99.90;;;;;;4989607;28;20044;-83
2021/11/05 04:15:27;;;;;;;15.20;4.68;;;6.00;99.90;;;;;;4970757;28;20034;-83
2021/11/05 04:17:53;;;;;;;10.18;3.85;;;6.00;99.90;;;;;;4985985;28;20038;-84
2021/11/05 04:20:19;;;;;;;15.65;4.22;;;6.10;99.90;;;;;;4970149;28;20044;-83
2021/11/05 04:22:45;;;;;;;16.95;4.15;;;6.10;99.90;;;;;;4987256;28;20493;-83
2021/11/05 04:25:11;;;;;;;12.90;3.83;;;6.20;99.90;;;;;;4968764;28;20042;-84
2021/11/05 04:27:38;;;;;;;13.27;3.60;;;6.20;99.90;;;;;;4970819;28;20040;-84
2021/11/05 04:30:07;;;;;;;13.68;3.75;;;6.30;99.90;;;;;;5005085;28;20044;-84
2021/11/05 04:32:33;;;;;;;17.95;3.40;;;6.30;99.90;;;;;;4985894;28;20147;-84
2021/11/05 04:34:59;;;;;;;11.02;3.22;;;6.30;99.90;;;;;;4953342;28;20133;-84
2021/11/05 04:37:25;;;;;;;12.73;2.78;;;6.30;99.90;;;;;;4969379;28;20025;-84
2021/11/05 04:39:50;;;;;;;10.93;3.10;;;6.30;99.90;;;;;;4969537;28;20041;-83
2021/11/05 04:42:16;;;;;;;11.77;3.60;;;6.30;99.90;;;;;;4952237;28;20084;-84
2021/11/05 04:44:45;;;;;;;12.48;3.33;;;6.20;99.90;;;;;;4952510;28;20034;-85
2021/11/05 04:47:11;;;;;;;14.10;2.80;;;6.30;99.90;;;;;;4986489;28;20041;-84
2021/11/05 04:49:37;;;;;;;13.80;2.78;;;6.20;99.90;;;;;;4964780;28;20096;-84
2021/11/05 04:52:04;;;;;;;11.00;2.80;;;6.30;99.90;;;;;;4983969;28;20112;-84
2021/11/05 04:54:30;;;;;;;12.95;2.92;;;6.30;99.90;;;;;;4983498;28;20386;-84
2021/11/05 04:56:56;;;;;;;12.23;2.95;;;6.30;99.90;;;;;;4969633;28;20044;-84
2021/11/05 04:59:22;;;;;;;14.43;3.53;;;6.30;99.90;;;;;;4985655;28;20176;-84
2021/11/05 05:01:48;;;;;;;13.07;2.90;;;6.30;99.90;;;;;;4973337;28;20066;-84
2021/11/05 05:04:15;;;;;;;7.68;3.00;;;6.30;99.90;;;;;;4986189;28;20153;-84
2021/11/05 05:06:47;;;;;;;;;;;6.30;99.90;;;;;;4970885;28;20460;-84
2021/11/05 05:09:13;;;;;;;7.05;2.83;;;6.30;99.90;;;;;;5000653;28;20063;-84
2021/11/05 05:11:44;;;;;;;17.40;3.40;;;6.30;99.90;;;;;;5003354;28;20053;-84
2021/11/05 05:14:10;;;;;;;13.10;2.88;;;6.30;99.90;;;;;;4986901;28;20095;-84
2021/11/05 05:16:36;;;;;;;8.85;2.90;;;6.30;99.90;;;;;;4988006;28;20500;-84
2021/11/05 05:19:02;;;;;;;9.77;2.85;;;6.30;99.90;;;;;;4951669;28;20480;-84
2021/11/05 05:21:28;;;;;;;10.30;3.00;;;6.30;99.90;;;;;;4969107;28;20053;-84
2021/11/05 05:23:54;;;;;;;11.70;2.88;;;6.30;99.90;;;;;;4987512;28;20627;-84
2021/11/05 05:26:20;;;;;;;9.18;2.53;;;6.30;99.90;;;;;;4968723;28;20042;-84
2021/11/05 05:28:46;;;;;;;15.80;2.70;;;6.30;99.90;;;;;;4951942;28;20434;-84
2021/11/05 05:31:13;;;;;;;8.70;2.13;;;6.30;99.90;;;;;;4968866;28;20726;-84
2021/11/05 05:33:41;;;;;;;13.88;2.50;;;6.30;99.90;;;;;;4974597;28;20067;-84
2021/11/05 05:36:08;;;;;;;11.70;2.58;;;6.30;99.90;;;;;;4957470;28;20124;-84
2021/11/05 05:38:35;;;;;;;10.63;2.58;;;6.30;99.90;;;;;;4965923;28;20041;-84
2021/11/05 05:41:01;;;;;;;6.75;2.28;;;6.30;99.90;;;;;;4964640;28;20045;-84
2021/11/05 05:43:27;;;;;;;7.78;2.22;;;6.30;99.90;;;;;;5001063;28;20563;-85
2021/11/05 05:45:53;;;;;;;13.60;2.40;;;6.30;99.90;;;;;;4990865;28;20038;-83
2021/11/05 05:48:20;;;;;;;9.48;2.00;;;6.30;99.90;;;;;;4987439;28;20158;-84
2021/11/05 05:50:46;;;;;;;11.90;2.13;;;6.30;99.90;;;;;;4986806;28;20049;-84
2021/11/05 05:53:12;;;;;;;10.80;2.40;;;6.20;99.90;;;;;;5002974;28;20037;-84
2021/11/05 05:55:39;;;;;;;9.38;2.20;;;6.30;99.90;;;;;;4966743;28;20026;-84
2021/11/05 05:58:06;;;;;;;10.38;2.30;;;6.20;99.90;;;;;;4969437;28;20388;-84
2021/11/05 06:00:33;;;;;;;11.10;2.47;;;6.20;99.90;;;;;;4971329;28;22368;-85
2021/11/05 06:02:58;;;;;;;14.73;2.38;;;6.30;99.90;;;;;;4981438;28;21598;-84
2021/11/05 06:05:24;;;;;;;14.07;2.50;;;6.30;99.90;;;;;;4973382;28;20669;-84
2021/11/05 06:07:50;;;;;;;8.90;2.35;;;6.30;99.90;;;;;;4949913;28;20026;-85
2021/11/05 06:10:16;;;;;;;6.85;2.63;;;6.30;99.90;;;;;;4977504;28;20061;-84
2021/11/05 06:12:42;;;;;;;14.32;3.03;;;6.30;99.90;;;;;;4973135;28;20464;-84
2021/11/05 06:15:09;;;;;;;10.07;2.83;;;6.30;99.90;;;;;;4979189;28;20524;-84
2021/11/05 06:17:35;;;;;;;10.88;2.50;;;6.40;99.90;;;;;;4976961;28;20073;-84
2021/11/05 06:20:04;;;;;;;6.15;2.38;;;6.40;99.90;;;;;;5007636;28;20080;-84
2021/11/05 06:22:30;;;;;;;13.45;2.92;;;6.40;99.90;;;;;;5002571;28;20041;-84
2021/11/05 06:24:57;;;;;;;14.98;2.47;;;6.50;99.90;;;;;;5003130;28;20041;-84
2021/11/05 06:27:24;;;;;;;12.23;2.53;;;6.50;99.90;;;;;;4989224;28;20056;-85
2021/11/05 06:29:50;;;;;;;14.90;2.55;;;6.50;99.90;;;;;;4949840;28;21296;-84
2021/11/05 06:32:16;;;;;;;9.52;2.53;;;6.50;99.90;;;;;;4993415;28;20069;-84
2021/11/05 06:34:42;;;;;;;11.68;2.45;;;6.50;99.90;;;;;;4981215;28;20402;-84
2021/11/05 06:37:08;;;;;;;8.82;2.63;;;6.60;99.90;;;;;;4968444;28;20045;-84
2021/11/05 06:39:34;;;;;;;15.30;2.80;;;6.50;99.90;;;;;;4970084;28;20033;-84
2021/11/05 06:42:01;;;;;;;13.27;2.92;;;6.60;99.90;;;;;;4981638;28;20096;-83
2021/11/05 06:44:26;;;;;;;12.68;2.70;;;6.60;99.90;;;;;;4961001;28;22987;-84
2021/11/05 06:46:52;;;;;;;10.75;2.38;;;6.60;99.90;;;;;;4980179;28;20041;-83
2021/11/05 06:49:18;;;;;;;11.70;2.55;;;6.60;99.90;;;;;;4991666;28;20037;-84
2021/11/05 06:51:44;;;;;;;12.52;2.42;;;6.70;99.90;;;;;;4979051;28;20046;-85
2021/11/05 06:54:10;;;;;;;12.10;2.53;;;6.70;99.90;;;;;;4974064;28;20038;-84
2021/11/05 06:56:36;;;;;;;12.43;2.20;;;6.70;99.90;;;;;;4991133;28;20040;-84
2021/11/05 06:59:02;;;;;;;13.80;2.78;;;6.70;99.90;;;;;;4983866;28;20042;-84
2021/11/05 07:01:29;;;;;;;13.38;2.63;;;6.70;99.90;;;;;;4978590;28;20449;-84
2021/11/05 07:03:54;;;;;;;19.02;3.20;;;6.80;99.90;;;;;;4977836;28;20051;-84
2021/11/05 07:06:21;;;;;;;10.65;3.00;;;6.80;99.90;;;;;;4947988;28;21224;-83
2021/11/05 07:08:47;;;;;;;14.13;2.80;;;6.80;99.90;;;;;;4981688;28;20038;-84
2021/11/05 07:11:13;;;;;;;14.88;2.88;;;6.80;99.90;;;;;;4971234;28;20044;-84
2021/11/05 07:13:39;;;;;;;11.50;2.85;;;6.80;99.90;;;;;;4980622;28;20545;-85
2021/11/05 07:16:05;;;;;;;11.55;3.40;;;6.90;99.90;;;;;;5008037;28;20041;-84
2021/11/05 07:18:32;;;;;;;13.07;3.60;;;6.90;99.90;;;;;;4980717;28;20076;-84
2021/11/05 07:21:03;;;;;;;15.23;2.72;;;6.90;99.90;;;;;;4994213;28;20053;-84
2021/11/05 07:23:31;;;;;;;9.68;2.60;;;6.90;99.90;;;;;;4995962;28;20093;-84
2021/11/05 07:25:58;;;;;;;14.57;2.78;;;7.00;99.90;;;;;;4966285;28;20053;-84
2021/11/05 07:28:26;;;;;;;12.93;2.90;;;7.00;99.90;;;;;;4970362;28;20050;-84
2021/11/05 07:30:53;;;;;;;12.98;2.90;;;7.00;99.90;;;;;;4968090;28;20068;-84
2021/11/05 07:33:22;;;;;;;12.98;3.30;;;7.00;99.90;;;;;;4971605;28;20073;-84
2021/11/05 07:35:48;;;;;;;18.13;2.95;;;7.10;99.90;;;;;;5003904;28;20037;-85
2021/11/05 07:38:14;;;;;;;9.95;2.85;;;7.10;99.90;;;;;;4970445;28;20045;-85
2021/11/05 07:40:40;;;;;;;11.10;3.13;;;7.20;99.90;;;;;;4944688;28;20041;-84
2021/11/05 07:43:08;;;;;;;7.07;2.60;;;7.20;99.90;;;;;;4954483;28;20108;-84
2021/11/05 07:45:35;;;;;;;7.78;2.17;;;7.30;99.90;;;;;;4981725;28;20033;-84
2021/11/05 07:48:00;;;;;;;10.90;2.83;;;7.30;99.90;;;;;;4962401;28;20087;-85
2021/11/05 07:50:34;;;;;;;15.70;3.22;;;7.30;99.90;;;;;;4964670;28;20041;-85
2021/11/05 07:53:15;;;;;;;14.38;3.13;;;7.40;99.90;;;;;;5000008;28;20041;-83
2021/11/05 07:55:48;;;;;;;14.10;2.72;;;7.40;99.90;;;;;;4979426;28;20151;-85
2021/11/05 07:58:28;;;;;;;9.32;2.65;;;7.40;99.90;;;;;;4978119;28;20086;-83
2021/11/05 08:00:54;;;;;;;10.48;2.60;;;7.40;99.90;;;;;;4979992;28;20053;-85
2021/11/05 08:03:26;;;;;;;13.85;2.90;;;7.40;99.90;;;;;;4992916;28;20033;-83
2021/11/05 08:05:59;;;;;;;9.43;2.53;;;7.40;99.90;;;;;;4977512;28;20489;-85
2021/11/05 08:08:44;;;;;;;15.80;2.65;;;7.50;99.90;;;;;;4978989;28;20057;-83
2021/11/05 08:11:12;;;;;;;16.33;3.53;;;7.50;99.90;;;;;;4977106;28;21812;-83
2021/11/05 08:13:53;;;;;;;11.93;2.63;;;7.50;99.90;;;;;;4991169;28;20037;-83
2021/11/05 08:17:01;;;;;;;7.78;2.45;;;7.50;99.90;;;;;;4983264;28;20053;-84
2021/11/05 08:20:07;;;;;;;14.82;3.30;;;7.50;99.90;;;;;;4987683;28;20490;-83
2021/11/05 08:26:12;;;;;;;;;;;;;;;;;;;;;
2021/11/05 08:28:59;;;;;;;16.73;3.17;;;7.60;99.90;;;;;;4999993;28;21348;-84
2021/11/05 08:32:09;;;;;;;16.38;2.85;;;7.60;99.90;;;;;;4992993;28;20046;-83
2021/11/05 08:34:56;;;;;;;14.20;3.30;;;7.60;99.90;;;;;;4974286;28;20596;-83
2021/11/05 08:37:39;;;;;;;10.60;3.08;;;7.70;99.90;;;;;;4995107;28;20084;-82
2021/11/05 08:40:43;;;;;;;10.63;2.92;;;7.80;99.90;;;;;;4962840;28;20041;-83
2021/11/05 08:43:45;;;;;;;;;;;;;;;;;;;;;
2021/11/05 08:46:48;;;;;;;;;;;;;;;;;;;;;
2021/11/05 08:49:28;;;;;;;12.80;2.92;;;8.20;99.90;;;;;;4994305;28;20088;-84
2021/11/05 08:52:00;;;;;;;14.15;2.80;;;8.30;99.90;;;;;;4978477;28;20500;-83
2021/11/05 08:54:40;;;;;;;6.10;2.50;;;8.40;99.90;;;;;;4974313;28;20042;-84
2021/11/05 08:57:16;;;;;;;8.55;2.70;;;8.50;99.90;;;;;;4993148;28;21431;-84
2021/11/05 08:59:45;;;;;;;15.85;2.88;;;8.50;99.90;;;;;;4992538;28;20038;-84
2021/11/05 09:02:11;;;;;;;14.30;2.78;;;8.60;99.90;;;;;;4990511;28;20030;-84
2021/11/05 09:04:37;;;;;;;12.98;3.55;;;8.60;99.90;;;;;;4978750;28;20586;-84
2021/11/05 09:07:05;;;;;;;9.05;2.45;;;8.60;99.90;;;;;;4977479;28;20084;-84
2021/11/05 09:09:31;;;;;;;13.00;2.45;;;8.70;99.90;;;;;;4973830;28;20112;-84
2021/11/05 09:11:57;;;;;;;10.43;2.72;;;8.80;99.90;;;;;;4973022;28;20552;-84
2021/11/05 09:14:28;;;;;;;6.95;2.28;;;8.80;99.90;;;;;;4977059;28;20042;-85
2021/11/05 09:16:54;;;;;;;13.40;2.85;;;8.80;99.90;;;;;;4971988;28;20195;-84
2021/11/05 09:19:20;;;;;;;11.32;2.42;;;8.90;99.90;;;;;;4973833;28;20037;-84
2021/11/05 09:21:46;;;;;;;18.88;7.07;;;8.90;99.90;;;;;;4990060;28;20038;-83
2021/11/05 09:24:12;;;;;;;16.70;4.25;;;8.90;99.90;;;;;;4960770;28;20112;-84
2021/11/05 09:26:37;;;;;;;18.45;5.60;;;9.00;99.90;;;;;;4972615;28;20053;-83
2021/11/05 09:29:03;;;;;;;8.73;2.60;;;9.10;99.90;;;;;;4942084;28;20467;-83
2021/11/05 09:31:29;;;;;;;12.18;2.33;;;9.10;99.90;;;;;;4957468;28;20051;-84
2021/11/05 09:33:55;;;;;;;14.07;2.22;;;9.20;99.90;;;;;;4978104;28;20041;-84
2021/11/05 09:36:21;;;;;;;9.25;2.20;;;9.30;99.90;;;;;;4975634;28;20054;-82
2021/11/05 09:38:48;;;;;;;14.40;2.95;;;9.30;99.90;;;;;;4989852;28;20293;-84
2021/11/05 09:41:15;;;;;;;8.90;4.65;;;9.30;99.90;;;;;;4974377;28;20791;-84
2021/11/05 09:43:41;;;;;;;10.77;2.30;;;9.40;99.90;;;;;;4959856;28;20045;-82
2021/11/05 09:46:07;;;;;;;9.45;2.00;;;9.40;99.90;;;;;;4972543;28;20066;-83
2021/11/05 09:48:37;;;;;;;8.35;2.30;;;9.50;99.90;;;;;;4967717;28;20554;-84
2021/11/05 09:51:13;;;;;;;9.20;2.60;;;9.60;99.90;;;;;;4969052;28;20088;-85
2021/11/05 09:53:40;;;;;;;5.63;2.15;;;9.60;99.90;;;;;;4987495;28;20096;-84
2021/11/05 09:56:14;;;;;;;6.63;1.40;;;9.70;99.90;;;;;;4994881;28;21779;-85
2021/11/05 09:58:42;;;;;;;10.90;1.90;;;9.70;99.90;;;;;;4984599;28;20469;-86
2021/11/05 10:01:10;;;;;;;12.00;1.88;;;9.70;99.90;;;;;;4979248;28;20042;-85
2021/11/05 10:03:36;;;;;;;6.53;1.67;;;9.80;99.90;;;;;;4958713;28;20038;-86
2021/11/05 10:06:07;;;;;;;11.50;2.13;;;9.80;99.90;;;;;;4976190;28;20042;-86
2021/11/05 10:08:35;;;;;;;12.88;2.10;;;9.80;99.90;;;;;;4971542;28;20426;-84
2021/11/05 10:11:22;;;;;;;8.30;2.05;;;9.80;99.90;;;;;;4991385;28;20413;-85
2021/11/05 10:13:48;;;;;;;12.55;2.15;;;9.80;99.90;;;;;;4984041;28;20040;-85
2021/11/05 10:16:15;;;;;;;13.05;2.40;;;9.80;99.90;;;;;;4971332;28;20041;-83
2021/11/05 10:18:57;;;;;;;7.47;1.92;;;9.90;99.90;;;;;;4962995;28;20557;-85
2021/11/05 10:21:23;;;;;;;5.73;2.00;;;10.00;99.90;;;;;;4992780;28;20046;-85
2021/11/05 10:23:49;;;;;;;9.50;3.30;;;10.10;99.90;;;;;;4990687;28;20049;-87
2021/11/05 10:26:33;;;;;;;13.55;4.22;;;10.10;99.90;;;;;;4952689;28;20506;-85
2021/11/05 10:28:59;;;;;;;13.85;5.07;;;10.20;99.90;;;;;;4975762;28;20049;-85
2021/11/05 10:31:28;;;;;;;8.55;2.30;;;10.30;99.90;;;;;;4970735;28;20408;-85
2021/11/05 10:33:54;;;;;;;4.45;1.65;;;10.40;99.90;;;;;;4979234;28;20029;-84
2021/11/05 10:36:24;;;;;;;6.50;1.70;;;10.50;99.90;;;;;;4980647;28;20045;-84
2021/11/05 10:38:57;;;;;;;5.00;1.38;;;10.60;99.90;;;;;;4992086;28;20794;-84
2021/11/05 10:41:26;;;;;;;9.30;1.30;;;10.60;99.90;;;;;;4991284;28;20046;-84
2021/11/05 10:44:00;;;;;;;6.32;0.90;;;10.70;99.90;;;;;;5014398;28;20120;-85
2021/11/05 10:46:39;;;;;;;4.22;1.13;;;10.80;99.90;;;;;;4980232;28;20265;-84
2021/11/05 10:49:26;;;;;;;8.93;1.10;;;10.90;99.90;;;;;;4996336;28;20061;-85
2021/11/05 10:52:22;;;;;;;8.40;1.33;;;11.00;99.90;;;;;;4979003;28;20041;-84
2021/11/05 10:55:00;;;;;;;3.97;0.68;;;11.20;99.90;;;;;;5016133;28;20073;-84
2021/11/05 10:57:48;;;;;;;6.78;1.05;;;11.30;99.90;;;;;;4983256;28;20129;-85
2021/11/05 11:00:25;;;;;;;4.97;0.65;;;11.30;99.90;;;;;;4996347;28;20038;-85
2021/11/05 11:02:50;;;;;;;3.85;0.90;;;11.40;99.90;;;;;;4979660;28;20485;-84
2021/11/05 11:05:34;;;;;;;7.15;1.13;;;11.40;99.90;;;;;;4972248;28;20046;-84
2021/11/05 11:08:01;;;;;;;3.28;1.10;;;11.40;99.90;;;;;;4984017;28;20046;-83
2021/11/05 11:10:29;;;;;;;7.38;1.33;;;11.50;99.90;;;;;;4973629;28;20053;-85
2021/11/05 11:12:55;;;;;;;4.05;1.10;;;11.50;99.90;;;;;;4964692;28;20049;-85
2021/11/05 11:15:35;;;;;;;5.72;0.60;;;11.50;99.90;;;;;;4980395;28;20231;-85
2021/11/05 11:18:02;;;;;;;4.90;1.63;;;11.50;99.90;;;;;;5008779;28;20103;-85
2021/11/05 11:20:33;;;;;;;4.18;0.77;;;11.50;99.90;;;;;;4979294;28;20062;-82
2021/11/05 11:23:00;;;;;;;5.05;0.70;;;11.60;99.90;;;;;;4977930;28;20046;-84
2021/11/05 11:25:36;;;;;;;6.63;0.85;;;11.60;99.90;;;;;;4974234;28;20050;-83
2021/11/05 11:28:02;;;;;;;5.30;1.27;;;11.60;99.90;;;;;;4970742;28;20100;-86
2021/11/05 11:30:28;;;;;;;2.65;1.05;;;11.60;99.90;;;;;;4958835;28;20046;-83
2021/11/05 11:32:55;;;;;;;3.63;0.60;;;11.60;99.90;;;;;;4974058;28;20039;-84
2021/11/05 11:35:21;;;;;;;4.90;2.33;;;11.60;99.90;;;;;;4975541;28;20188;-85
2021/11/05 11:37:47;;;;;;;4.13;1.08;;;11.60;99.90;;;;;;4952335;28;20054;-85
2021/11/05 11:40:13;;;;;;;2.75;0.52;;;11.70;99.90;;;;;;4960201;28;20068;-85
2021/11/05 11:42:40;;;;;;;7.78;1.60;;;11.60;99.90;;;;;;4977245;28;20034;-85
2021/11/05 11:45:11;;;;;;;5.93;1.05;;;11.60;99.90;;;;;;5001469;28;20046;-85
2021/11/05 11:47:49;;;;;;;5.15;0.75;;;11.60;99.90;;;;;;4982965;28;20053;-85
2021/11/05 11:50:30;;;;;;;3.17;0.75;;;11.60;99.90;;;;;;5015303;28;20513;-83
2021/11/05 11:53:08;;;;;;;4.70;0.73;;;11.60;99.90;;;;;;5001084;28;20046;-85
2021/11/05 11:55:37;;;;;;;3.70;0.65;;;11.50;99.90;;;;;;4974553;28;20328;-85
2021/11/05 11:58:17;;;;;;;3.75;0.75;;;11.60;99.90;;;;;;5001627;28;20069;-84
2021/11/05 12:00:46;;;;;;;2.33;0.63;;;11.60;99.90;;;;;;4980996;28;20121;-83
2021/11/05 12:03:21;;;;;;;3.83;0.68;;;11.60;99.90;;;;;;4999534;28;20109;-81
2021/11/05 12:05:55;;;;;;;3.00;0.60;;;11.60;99.90;;;;;;4988462;28;20069;-81
2021/11/05 12:08:26;;;;;;;4.05;0.65;;;11.70;99.90;;;;;;5003290;28;20080;-82
2021/11/05 12:10:55;;;;;;;2.67;0.70;;;11.80;99.90;;;;;;4998872;28;20034;-82
2021/11/05 12:13:33;;;;;;;2.72;0.70;;;11.90;99.90;;;;;;4983884;28;20117;-82
2021/11/05 12:16:23;;;;;;;6.53;1.55;;;11.90;99.90;;;;;;4982918;28;20617;-83
2021/11/05 12:18:55;;;;;;;7.90;1.67;;;12.00;99.90;;;;;;4992170;28;20504;-82
2021/11/05 12:21:23;;;;;;;10.10;3.75;;;12.00;99.90;;;;;;4986405;28;20052;-81
2021/11/05 12:24:19;;;;;;;8.20;1.58;;;12.00;99.90;;;;;;5001411;28;20142;-86
2021/11/05 12:26:49;;;;;;;7.28;1.10;;;12.00;99.90;;;;;;4985412;28;20038;-83
2021/11/05 12:29:34;;;;;;;3.00;1.25;;;12.00;99.90;;;;;;5001139;28;20042;-84
2021/11/05 12:32:01;;;;;;;3.25;0.93;;;12.00;99.90;;;;;;4991405;28;20042;-86
2021/11/05 12:34:36;;;;;;;4.80;0.88;;;11.90;99.90;;;;;;5003914;28;20038;-83
2021/11/05 12:37:04;;;;;;;10.90;2.58;;;11.90;99.90;;;;;;4982134;28;20033;-82
2021/11/05 12:39:38;;;;;;;8.52;2.70;;;11.90;99.90;;;;;;4982412;28;20049;-86
2021/11/05 12:42:10;;;;;;;7.65;1.00;;;11.80;99.90;;;;;;4988623;28;20045;-88
2021/11/05 12:45:01;;;;;;;8.20;1.20;;;11.80;99.90;;;;;;5003025;28;20057;-87
2021/11/05 12:47:56;;;;;;;4.80;0.80;;;11.50;99.90;;;;;;4986644;28;20049;-85
2021/11/05 12:50:34;;;;;;;5.32;0.93;;;11.30;99.90;;;;;;4992768;28;20049;-87
2021/11/05 12:53:13;;;;;;;9.43;1.35;;;11.10;99.90;;;;;;5002462;28;20077;-88
2021/11/05 12:55:42;;;;;;;13.85;1.30;;;11.00;99.90;;;;;;5010253;28;20042;-86
2021/11/05 12:58:17;;;;;;;11.23;1.58;;;10.80;99.90;;;;;;5008631;28;20041;-86
2021/11/05 13:00:55;;;;;;;9.32;1.10;;;10.80;99.90;;;;;;4989457;28;20034;-88
2021/11/05 13:03:24;;;;;;;;;;;10.70;99.90;;;;;;4992154;28;20532;-87
2021/11/05 13:05:55;;;;;;;7.30;0.98;;;10.60;99.90;;;;;;4987333;28;19917;-87